Time;durP1;ratioP1;P1;durP2;ratioP2;P2;SDS_P1;SDS_P2;PMS_P1;PMS_P2;Temp;Humidity;BMP_temperature;BMP_pressure;BME280_temperature;BME280_humidity;BME280_pressure;Samples;Min_cycle;Max_cycle;Signal;HPM_P1;HPM_P2
2023/03/08 00:01:26;;;;;;;11.90;7.00;;;0.40;99.90;;;;;;5010940;28;20220;-80
2023/03/08 00:03:55;;;;;;;10.90;6.60;;;0.40;99.90;;;;;;5012590;28;20216;-80
2023/03/08 00:06:22;;;;;;;12.37;7.93;;;0.50;99.90;;;;;;5012654;28;20799;-80
2023/03/08 00:08:49;;;;;;;11.77;8.23;;;0.50;99.90;;;;;;5012000;28;20259;-82
2023/03/08 00:11:17;;;;;;;18.73;7.10;;;0.50;99.90;;;;;;5012406;28;20623;-81
2023/03/08 00:13:44;;;;;;;14.63;6.93;;;0.50;99.90;;;;;;5012390;28;20201;-81
2023/03/08 00:16:12;;;;;;;11.00;6.47;;;0.50;99.90;;;;;;5012847;28;20212;-80
2023/03/08 00:18:40;;;;;;;14.73;7.87;;;0.60;99.90;;;;;;5011731;28;20232;-80
2023/03/08 00:21:08;;;;;;;11.03;7.50;;;0.60;99.90;;;;;;5009115;28;20207;-82
2023/03/08 00:23:35;;;;;;;11.17;5.87;;;0.60;99.90;;;;;;5011024;28;20660;-81
2023/03/08 00:26:02;;;;;;;11.03;7.57;;;0.70;99.90;;;;;;5012839;28;20287;-81
2023/03/08 00:28:30;;;;;;;9.70;7.07;;;0.70;99.90;;;;;;5012360;28;20240;-81
2023/03/08 00:30:58;;;;;;;12.57;6.37;;;0.70;99.90;;;;;;5012781;28;20215;-80
2023/03/08 00:33:25;;;;;;;10.50;6.20;;;0.80;99.90;;;;;;5012914;28;20215;-81
2023/03/08 00:35:57;;;;;;;11.57;7.40;;;0.70;99.90;;;;;;5012608;28;20287;-80
2023/03/08 00:38:24;;;;;;;10.13;6.13;;;0.70;99.90;;;;;;5012471;28;20227;-81
2023/03/08 00:40:51;;;;;;;9.73;6.00;;;0.70;99.90;;;;;;4996879;28;20193;-80
2023/03/08 00:43:18;;;;;;;9.53;6.27;;;0.70;99.90;;;;;;4992810;28;20230;-80
2023/03/08 00:45:46;;;;;;;9.27;5.60;;;0.60;99.90;;;;;;4992875;28;20665;-80
2023/03/08 00:48:12;;;;;;;8.73;5.40;;;0.60;99.90;;;;;;4998368;28;20220;-81
2023/03/08 00:50:39;;;;;;;8.93;5.27;;;0.50;99.90;;;;;;5012697;28;20208;-80
2023/03/08 00:53:07;;;;;;;8.27;4.97;;;0.50;99.90;;;;;;5012568;28;20196;-81
2023/03/08 00:55:34;;;;;;;7.67;5.40;;;0.40;99.90;;;;;;5011976;28;20192;-80
2023/03/08 00:58:01;;;;;;;7.67;4.60;;;0.40;99.90;;;;;;5011656;28;20220;-80
2023/03/08 01:00:27;;;;;;;8.27;4.97;;;0.30;99.90;;;;;;5012273;28;20206;-80
2023/03/08 01:02:56;;;;;;;11.97;5.27;;;0.40;99.90;;;;;;5012187;28;20208;-81
2023/03/08 01:05:22;;;;;;;8.30;5.67;;;0.60;99.90;;;;;;5013236;28;20234;-82
2023/03/08 01:07:49;;;;;;;7.87;4.70;;;0.50;99.90;;;;;;5015790;28;20220;-81
2023/03/08 01:10:17;;;;;;;7.80;4.43;;;0.40;99.90;;;;;;5015644;28;20201;-80
2023/03/08 01:12:44;;;;;;;11.00;5.03;;;0.40;99.90;;;;;;5016043;28;20593;-80
2023/03/08 01:15:11;;;;;;;8.77;4.40;;;0.30;99.90;;;;;;5015947;28;20196;-80
2023/03/08 01:17:38;;;;;;;7.97;4.60;;;0.40;99.90;;;;;;5015808;28;20222;-81
2023/03/08 01:20:07;;;;;;;11.60;5.07;;;0.30;99.90;;;;;;5015417;28;20212;-80
2023/03/08 01:22:34;;;;;;;6.93;4.87;;;0.40;99.90;;;;;;5015577;28;20680;-80
2023/03/08 01:25:01;;;;;;;6.80;4.40;;;0.30;99.90;;;;;;5015395;28;20235;-80
2023/03/08 01:27:28;;;;;;;6.50;4.10;;;0.30;99.90;;;;;;5015590;28;20227;-82
2023/03/08 01:29:54;;;;;;;9.27;5.57;;;0.40;99.90;;;;;;5015168;28;20296;-80
2023/03/08 01:32:21;;;;;;;7.33;4.20;;;0.50;99.90;;;;;;5015608;28;20207;-80
2023/03/08 01:34:48;;;;;;;6.97;4.90;;;0.50;99.90;;;;;;5015342;28;20189;-81
2023/03/08 01:37:16;;;;;;;7.87;4.80;;;0.70;99.90;;;;;;5015198;28;20203;-81
2023/03/08 01:39:43;;;;;;;7.90;5.00;;;0.80;99.90;;;;;;5015963;28;20230;-81
2023/03/08 01:42:10;;;;;;;8.60;4.73;;;0.90;99.90;;;;;;5015684;28;20661;-80
2023/03/08 01:44:50;;;;;;;8.83;5.00;;;1.00;99.90;;;;;;5015217;28;20311;-80
2023/03/08 01:47:19;;;;;;;11.90;4.60;;;1.00;99.90;;;;;;5015417;28;20200;-80
2023/03/08 01:49:46;;;;;;;9.07;5.20;;;1.00;99.90;;;;;;5014888;28;20613;-80
2023/03/08 01:52:18;;;;;;;10.07;4.80;;;1.00;99.90;;;;;;5015050;28;20200;-80
2023/03/08 01:54:47;;;;;;;12.33;4.97;;;1.10;99.90;;;;;;5015514;28;20668;-82
2023/03/08 01:57:19;;;;;;;8.47;4.70;;;1.00;99.90;;;;;;5013404;28;20203;-80
2023/03/08 01:59:48;;;;;;;9.90;4.50;;;1.00;99.90;;;;;;4998788;28;20201;-81
2023/03/08 02:02:16;;;;;;;8.23;5.10;;;0.90;99.90;;;;;;5014961;28;20193;-81
2023/03/08 02:04:44;;;;;;;11.40;6.73;;;0.90;99.90;;;;;;5011475;28;20232;-80
2023/03/08 02:07:11;;;;;;;8.63;5.27;;;0.90;99.90;;;;;;5012877;28;20667;-80
2023/03/08 02:09:39;;;;;;;10.70;5.10;;;0.80;99.90;;;;;;5003858;28;20577;-80
2023/03/08 02:12:10;;;;;;;8.73;5.13;;;0.80;99.90;;;;;;5012349;28;20291;-83
2023/03/08 02:14:37;;;;;;;9.80;5.03;;;0.80;99.90;;;;;;5014162;28;20589;-81
2023/03/08 02:17:04;;;;;;;10.17;5.83;;;0.80;99.90;;;;;;4996358;28;20216;-80
2023/03/08 02:19:38;;;;;;;11.90;5.37;;;0.70;99.90;;;;;;5021816;28;20224;-81
2023/03/08 02:22:09;;;;;;;7.70;5.17;;;0.60;99.90;;;;;;5014905;28;20196;-80
2023/03/08 02:24:38;;;;;;;10.47;5.00;;;0.60;99.90;;;;;;5014882;28;20596;-81
2023/03/08 02:27:09;;;;;;;8.73;5.60;;;0.60;99.90;;;;;;5014448;28;20574;-81
2023/03/08 02:29:36;;;;;;;12.30;5.63;;;0.50;99.90;;;;;;5014132;28;20696;-80
2023/03/08 02:32:02;;;;;;;10.10;6.23;;;0.50;99.90;;;;;;5013810;28;20672;-81
2023/03/08 02:34:29;;;;;;;12.97;6.13;;;0.40;99.90;;;;;;5014569;28;20679;-80
2023/03/08 02:36:56;;;;;;;8.73;5.13;;;0.40;99.90;;;;;;5014216;28;20227;-80
2023/03/08 02:39:23;;;;;;;10.43;6.40;;;0.40;99.90;;;;;;5012152;28;20605;-81
2023/03/08 02:41:51;;;;;;;11.50;6.40;;;0.40;99.90;;;;;;5013882;28;20212;-82
2023/03/08 02:44:18;;;;;;;10.77;6.13;;;0.30;99.90;;;;;;5014228;28;20232;-81
2023/03/08 02:46:44;;;;;;;11.77;6.73;;;0.30;99.90;;;;;;5013941;28;20209;-82
2023/03/08 02:49:11;;;;;;;9.90;6.27;;;0.30;99.90;;;;;;5013032;28;20236;-81
2023/03/08 02:51:38;;;;;;;9.33;5.67;;;0.30;99.90;;;;;;5014488;28;20676;-81
2023/03/08 02:54:05;;;;;;;10.77;5.93;;;0.30;99.90;;;;;;5008845;28;20205;-80
2023/03/08 02:56:32;;;;;;;15.27;7.13;;;0.20;99.90;;;;;;5009702;28;20216;-80
2023/03/08 02:59:00;;;;;;;11.73;6.30;;;0.20;99.90;;;;;;5016752;28;20232;-81
2023/03/08 03:01:27;;;;;;;11.07;6.17;;;0.30;99.90;;;;;;5033470;28;20211;-81
2023/03/08 03:03:54;;;;;;;15.53;7.37;;;0.30;99.90;;;;;;5024806;28;20212;-80
2023/03/08 03:06:21;;;;;;;14.37;6.10;;;0.30;99.90;;;;;;5012902;28;20227;-82
2023/03/08 03:08:48;;;;;;;14.50;6.60;;;0.10;99.90;;;;;;5012309;28;20232;-81
2023/03/08 03:11:17;;;;;;;12.47;6.63;;;0.10;99.90;;;;;;5012966;28;20201;-80
2023/03/08 03:13:45;;;;;;;14.07;6.97;;;0.10;99.90;;;;;;5012764;28;20215;-80
2023/03/08 03:16:15;;;;;;;13.67;7.07;;;0.00;99.90;;;;;;5013260;28;20231;-82
2023/03/08 03:18:42;;;;;;;14.53;6.97;;;0.00;99.90;;;;;;5010980;28;20594;-81
2023/03/08 03:21:12;;;;;;;13.57;6.40;;;0.00;99.90;;;;;;5013493;28;20200;-80
2023/03/08 03:23:39;;;;;;;14.87;6.80;;;0.00;99.90;;;;;;5013301;28;20208;-80
2023/03/08 03:26:06;;;;;;;12.93;6.83;;;-0.10;99.90;;;;;;5014159;28;20228;-80
2023/03/08 03:28:33;;;;;;;14.87;7.90;;;-0.10;99.90;;;;;;5013600;28;20232;-80
2023/03/08 03:31:00;;;;;;;14.57;7.50;;;-0.10;99.90;;;;;;5014051;28;20211;-80
2023/03/08 03:33:28;;;;;;;21.60;11.30;;;-0.10;99.90;;;;;;5012756;28;20653;-81
2023/03/08 03:35:55;;;;;;;21.37;10.20;;;-0.20;99.90;;;;;;5012767;28;20196;-80
2023/03/08 03:38:23;;;;;;;14.30;8.43;;;-0.30;99.90;;;;;;5012507;28;20231;-81
2023/03/08 03:40:49;;;;;;;14.43;8.40;;;-0.20;99.90;;;;;;5004869;28;20203;-80
2023/03/08 03:43:16;;;;;;;16.00;7.20;;;-0.20;99.90;;;;;;5012111;28;20211;-81
2023/03/08 03:45:43;;;;;;;17.70;8.40;;;-0.20;99.90;;;;;;5030185;28;20219;-81
2023/03/08 03:48:10;;;;;;;16.10;8.90;;;-0.10;99.90;;;;;;5030695;28;20231;-81
2023/03/08 03:50:38;;;;;;;14.53;8.27;;;-0.10;99.90;;;;;;5032777;28;20226;-81
2023/03/08 03:53:04;;;;;;;15.93;9.23;;;0.00;99.90;;;;;;5033726;28;20214;-81
2023/03/08 03:55:31;;;;;;;17.20;9.20;;;0.00;99.90;;;;;;5017448;28;20204;-81
2023/03/08 03:57:58;;;;;;;17.10;9.20;;;0.00;99.90;;;;;;5014923;28;20231;-83
2023/03/08 04:00:25;;;;;;;16.87;8.10;;;0.00;99.90;;;;;;5012279;28;20204;-81
2023/03/08 04:02:52;;;;;;;15.57;7.63;;;-0.10;99.90;;;;;;5012742;28;20347;-81
2023/03/08 04:05:19;;;;;;;16.77;9.20;;;-0.20;99.90;;;;;;5012605;28;20226;-81
2023/03/08 04:07:47;;;;;;;14.53;8.30;;;-0.10;99.90;;;;;;5012660;28;20591;-80
2023/03/08 04:10:14;;;;;;;19.77;7.27;;;-0.10;99.90;;;;;;5012282;28;20208;-80
2023/03/08 04:12:41;;;;;;;16.43;7.10;;;0.00;99.90;;;;;;5014486;28;20207;-86
2023/03/08 04:15:08;;;;;;;17.47;7.93;;;-0.10;99.90;;;;;;5015030;28;20201;-81
2023/03/08 04:17:35;;;;;;;13.93;6.93;;;-0.10;99.90;;;;;;5017058;28;20212;-80
2023/03/08 04:20:03;;;;;;;13.50;6.83;;;-0.20;99.90;;;;;;5014136;28;20478;-82
2023/03/08 04:22:29;;;;;;;15.80;8.03;;;-0.10;99.90;;;;;;5014225;28;20249;-82
2023/03/08 04:24:58;;;;;;;15.30;8.17;;;-0.10;99.90;;;;;;5012766;28;20235;-81
2023/03/08 04:27:24;;;;;;;11.63;6.37;;;-0.10;99.90;;;;;;5004540;28;20192;-80
2023/03/08 04:29:52;;;;;;;11.30;6.17;;;-0.10;99.90;;;;;;5017338;28;20212;-80
2023/03/08 04:32:19;;;;;;;15.30;7.53;;;0.00;99.90;;;;;;4995513;28;20231;-80
2023/03/08 04:34:46;;;;;;;13.30;6.30;;;0.00;99.90;;;;;;5023086;28;20284;-80
2023/03/08 04:37:13;;;;;;;11.23;6.53;;;0.00;99.90;;;;;;5026747;28;20211;-79
2023/03/08 04:39:40;;;;;;;12.97;6.23;;;0.00;99.90;;;;;;5014047;28;20201;-80
2023/03/08 04:42:08;;;;;;;13.23;6.50;;;0.10;99.90;;;;;;5016025;28;20295;-79
2023/03/08 04:44:35;;;;;;;11.27;6.43;;;0.10;99.90;;;;;;5016951;28;20331;-80
2023/03/08 04:47:01;;;;;;;12.20;6.30;;;0.10;99.90;;;;;;5015427;28;20562;-80
2023/03/08 04:49:28;;;;;;;10.23;5.77;;;0.10;99.90;;;;;;5016580;28;20251;-80
2023/03/08 04:51:55;;;;;;;11.20;5.37;;;0.10;99.90;;;;;;5017312;28;20295;-80
2023/03/08 04:54:22;;;;;;;11.53;6.27;;;0.10;99.90;;;;;;5015750;28;20295;-78
2023/03/08 04:56:49;;;;;;;11.60;6.00;;;0.10;99.90;;;;;;5017322;28;20204;-80
2023/03/08 04:59:17;;;;;;;15.47;6.17;;;0.10;99.90;;;;;;5016557;28;20232;-80
2023/03/08 05:01:43;;;;;;;10.47;6.13;;;0.10;99.90;;;;;;5017306;28;20276;-80
2023/03/08 05:04:11;;;;;;;13.27;6.37;;;0.10;99.90;;;;;;5016206;28;20263;-79
2023/03/08 05:06:38;;;;;;;11.67;6.60;;;0.00;99.90;;;;;;5016710;28;20248;-79
2023/03/08 05:09:05;;;;;;;10.53;5.97;;;0.00;99.90;;;;;;5015101;28;20229;-79
2023/03/08 05:11:32;;;;;;;10.40;5.83;;;0.00;99.90;;;;;;5016789;28;20201;-79
2023/03/08 05:13:59;;;;;;;10.07;5.87;;;-0.10;99.90;;;;;;5018707;28;20691;-80
2023/03/08 05:16:28;;;;;;;9.43;5.43;;;-0.10;99.90;;;;;;5026941;28;20195;-80
2023/03/08 05:18:55;;;;;;;10.37;5.43;;;0.00;99.90;;;;;;5032418;28;20285;-80
2023/03/08 05:21:22;;;;;;;10.20;4.87;;;-0.10;99.90;;;;;;5016090;28;20211;-80
2023/03/08 05:23:49;;;;;;;9.63;5.27;;;-0.10;99.90;;;;;;5014820;28;20211;-80
2023/03/08 05:26:17;;;;;;;8.30;4.50;;;-0.10;99.90;;;;;;5009401;28;20297;-79
2023/03/08 05:28:44;;;;;;;9.63;5.10;;;-0.20;99.90;;;;;;5015114;28;20223;-80
2023/03/08 05:31:13;;;;;;;8.57;5.23;;;-0.20;99.90;;;;;;5028738;28;20290;-80
2023/03/08 05:33:42;;;;;;;9.27;5.17;;;-0.10;99.90;;;;;;5032307;28;20748;-79
2023/03/08 05:36:12;;;;;;;9.03;5.10;;;-0.10;99.90;;;;;;5015128;28;20295;-80
2023/03/08 05:38:39;;;;;;;10.50;5.30;;;-0.10;99.90;;;;;;5007193;28;20220;-80
2023/03/08 05:41:08;;;;;;;10.17;5.57;;;0.00;99.90;;;;;;4999907;28;20200;-79
2023/03/08 05:43:35;;;;;;;8.70;5.30;;;0.00;99.90;;;;;;5007868;28;20291;-79
2023/03/08 05:46:04;;;;;;;9.60;5.33;;;0.00;99.90;;;;;;5006438;28;20307;-80
2023/03/08 05:48:32;;;;;;;7.87;4.63;;;0.00;99.90;;;;;;5013241;28;20681;-79
2023/03/08 05:51:05;;;;;;;11.17;5.47;;;0.00;99.90;;;;;;5014691;28;20200;-79
2023/03/08 05:53:31;;;;;;;9.40;5.90;;;-0.20;99.90;;;;;;5028793;28;20563;-80
2023/03/08 05:56:08;;;;;;;10.57;5.20;;;-0.30;99.90;;;;;;5034861;28;20551;-79
2023/03/08 05:58:35;;;;;;;8.00;4.97;;;-0.20;99.90;;;;;;5024206;28;20259;-80
2023/03/08 06:01:09;;;;;;;9.63;5.43;;;-0.30;99.90;;;;;;5015435;28;20322;-79
2023/03/08 06:03:36;;;;;;;9.13;5.67;;;-0.40;99.90;;;;;;5015803;28;20217;-79
2023/03/08 06:06:04;;;;;;;9.33;5.73;;;-0.30;99.90;;;;;;5013987;28;20228;-81
2023/03/08 06:08:31;;;;;;;12.27;5.97;;;-0.30;99.90;;;;;;5013002;28;20230;-80
2023/03/08 06:10:58;;;;;;;10.67;5.80;;;-0.20;99.90;;;;;;5015486;28;20200;-79
2023/03/08 06:13:25;;;;;;;13.07;6.13;;;-0.20;99.90;;;;;;5014675;28;20255;-80
2023/03/08 06:15:54;;;;;;;10.67;5.73;;;-0.20;99.90;;;;;;5015940;28;20211;-80
2023/03/08 06:18:21;;;;;;;10.57;5.77;;;-0.20;99.90;;;;;;5014925;28;20228;-80
2023/03/08 06:20:56;;;;;;;10.67;6.30;;;-0.10;99.90;;;;;;5014974;28;20650;-79
2023/03/08 06:23:25;;;;;;;13.20;7.27;;;-0.10;99.90;;;;;;5014898;28;20211;-80
2023/03/08 06:25:51;;;;;;;12.87;6.93;;;-0.10;99.90;;;;;;5014695;28;20228;-80
2023/03/08 06:28:18;;;;;;;13.03;6.83;;;0.00;99.90;;;;;;5014988;28;20220;-79
2023/03/08 06:30:48;;;;;;;15.70;7.60;;;0.00;99.90;;;;;;5016225;28;20199;-80
2023/03/08 06:33:14;;;;;;;14.60;6.77;;;0.00;99.90;;;;;;5019203;28;20195;-79
2023/03/08 06:35:41;;;;;;;15.07;7.53;;;0.00;99.90;;;;;;5024349;28;20195;-80
2023/03/08 06:38:08;;;;;;;16.37;8.97;;;0.00;99.90;;;;;;5014854;28;20220;-80
2023/03/08 06:40:36;;;;;;;14.07;7.77;;;0.10;99.90;;;;;;5015249;28;20236;-79
2023/03/08 06:43:03;;;;;;;15.13;8.60;;;0.20;99.90;;;;;;5015911;28;20204;-80
2023/03/08 06:45:32;;;;;;;17.37;8.40;;;0.20;99.90;;;;;;4996543;28;20231;-79
2023/03/08 06:47:59;;;;;;;20.10;8.87;;;0.30;99.90;;;;;;4993393;28;20292;-80
2023/03/08 06:50:26;;;;;;;15.67;8.30;;;0.40;99.90;;;;;;5008722;28;20209;-79
2023/03/08 06:52:53;;;;;;;17.90;8.63;;;0.40;99.90;;;;;;5014570;28;20200;-80
2023/03/08 06:55:19;;;;;;;21.20;9.73;;;0.50;99.90;;;;;;5012507;28;20201;-80
2023/03/08 06:57:47;;;;;;;17.80;8.50;;;0.50;99.90;;;;;;5013856;28;20238;-80
2023/03/08 07:00:15;;;;;;;16.80;8.13;;;0.50;99.90;;;;;;5015147;28;20208;-79
2023/03/08 07:02:42;;;;;;;17.40;8.43;;;0.60;99.90;;;;;;5014591;28;20267;-80
2023/03/08 07:05:09;;;;;;;16.37;9.13;;;0.60;99.90;;;;;;5014597;28;20212;-80
2023/03/08 07:07:37;;;;;;;18.90;8.70;;;0.60;99.90;;;;;;5014597;28;20231;-80
2023/03/08 07:10:04;;;;;;;16.77;8.07;;;0.60;99.90;;;;;;5014024;28;20212;-80
2023/03/08 07:12:31;;;;;;;18.00;9.17;;;0.60;99.90;;;;;;5014285;28;20211;-79
2023/03/08 07:15:00;;;;;;;16.90;8.47;;;0.70;99.90;;;;;;5014658;28;20623;-80
2023/03/08 07:17:26;;;;;;;19.07;8.97;;;0.70;99.90;;;;;;5014153;28;20211;-80
2023/03/08 07:19:53;;;;;;;17.43;8.83;;;0.80;99.90;;;;;;5014029;28;20402;-80
2023/03/08 07:22:20;;;;;;;16.27;8.23;;;0.80;99.90;;;;;;5014172;28;20212;-80
2023/03/08 07:24:47;;;;;;;16.33;8.57;;;0.90;99.90;;;;;;5014191;28;20204;-80
2023/03/08 07:27:14;;;;;;;21.10;11.10;;;0.90;99.90;;;;;;5013664;28;20274;-79
2023/03/08 07:29:41;;;;;;;18.67;8.80;;;0.80;99.90;;;;;;5013354;28;20204;-79
2023/03/08 07:32:09;;;;;;;18.17;8.73;;;0.90;99.90;;;;;;5013563;28;20201;-80
2023/03/08 07:34:36;;;;;;;18.33;8.60;;;0.90;99.90;;;;;;5013964;28;20208;-79
2023/03/08 07:37:03;;;;;;;17.97;9.60;;;0.90;99.90;;;;;;5013814;28;20204;-80
2023/03/08 07:39:30;;;;;;;19.37;9.23;;;1.00;99.90;;;;;;5013817;28;20231;-80
2023/03/08 07:41:56;;;;;;;18.67;8.83;;;1.10;99.90;;;;;;5014382;28;20208;-80
2023/03/08 07:44:23;;;;;;;18.87;9.97;;;1.20;99.90;;;;;;5013691;28;20551;-80
2023/03/08 07:46:50;;;;;;;19.93;9.60;;;1.30;99.90;;;;;;5013487;28;20220;-80
2023/03/08 07:49:18;;;;;;;20.93;9.77;;;1.40;99.90;;;;;;5013092;28;20232;-81
2023/03/08 07:51:45;;;;;;;21.83;10.57;;;1.50;99.90;;;;;;5013319;28;20212;-80
2023/03/08 07:54:12;;;;;;;19.93;9.87;;;1.50;99.90;;;;;;5013449;28;20215;-80
2023/03/08 07:56:39;;;;;;;19.97;10.10;;;1.50;99.90;;;;;;5013157;28;20192;-80
2023/03/08 07:59:06;;;;;;;21.07;9.87;;;1.50;99.90;;;;;;5013032;28;20224;-80
2023/03/08 08:01:33;;;;;;;20.40;9.43;;;1.50;99.90;;;;;;5013138;28;20207;-80
2023/03/08 08:04:00;;;;;;;21.50;9.67;;;1.50;99.90;;;;;;5012823;28;20661;-80
2023/03/08 08:06:28;;;;;;;21.30;9.30;;;1.50;99.90;;;;;;5012899;28;20228;-80
2023/03/08 08:08:55;;;;;;;19.40;9.37;;;1.50;99.90;;;;;;5012755;28;20224;-80
2023/03/08 08:11:22;;;;;;;18.10;10.27;;;1.50;99.90;;;;;;5013070;28;20204;-79
2023/03/08 08:13:49;;;;;;;17.90;10.23;;;1.50;99.90;;;;;;5012890;28;20204;-79
2023/03/08 08:16:16;;;;;;;19.67;9.93;;;1.50;99.90;;;;;;5012366;28;20196;-80
2023/03/08 08:18:43;;;;;;;17.30;9.20;;;1.50;99.90;;;;;;5012736;28;20716;-79
2023/03/08 08:21:12;;;;;;;20.90;9.33;;;1.50;99.90;;;;;;5013228;28;20215;-79
2023/03/08 08:23:41;;;;;;;19.63;9.97;;;1.50;99.90;;;;;;5013096;28;20215;-80
2023/03/08 08:26:10;;;;;;;21.60;10.03;;;1.60;99.90;;;;;;5013083;28;20226;-80
2023/03/08 08:28:38;;;;;;;16.53;8.57;;;1.50;99.90;;;;;;5011146;28;20235;-80
2023/03/08 08:31:07;;;;;;;19.60;9.60;;;1.50;99.90;;;;;;5018679;28;20204;-80
2023/03/08 08:33:35;;;;;;;18.73;9.67;;;1.60;99.90;;;;;;5005027;28;20211;-80
2023/03/08 08:36:04;;;;;;;22.30;10.00;;;1.70;99.90;;;;;;5006890;28;20202;-79
2023/03/08 08:38:31;;;;;;;18.53;9.70;;;1.70;99.90;;;;;;5021811;28;20219;-80
2023/03/08 08:41:00;;;;;;;18.53;9.13;;;1.70;99.90;;;;;;5031897;28;20207;-79
2023/03/08 08:43:27;;;;;;;19.23;9.20;;;1.70;99.90;;;;;;5028875;28;20206;-80
2023/03/08 08:45:56;;;;;;;21.63;10.47;;;1.90;99.90;;;;;;5031627;28;20215;-79
2023/03/08 08:48:23;;;;;;;23.13;10.40;;;2.00;99.90;;;;;;5022167;28;20226;-81
2023/03/08 08:50:50;;;;;;;21.33;10.50;;;1.90;99.90;;;;;;5004074;28;20201;-80
2023/03/08 08:53:17;;;;;;;21.60;10.37;;;2.10;99.90;;;;;;5015640;28;20200;-80
2023/03/08 08:55:45;;;;;;;24.03;11.63;;;2.20;99.90;;;;;;5032498;28;20210;-80
2023/03/08 08:58:13;;;;;;;19.60;10.53;;;2.50;99.90;;;;;;5022239;28;20328;-80
2023/03/08 09:00:40;;;;;;;21.23;10.90;;;2.40;99.90;;;;;;5012592;28;20568;-80
2023/03/08 09:03:07;;;;;;;23.97;11.27;;;2.40;99.90;;;;;;5012464;28;20242;-80
2023/03/08 09:05:38;;;;;;;21.37;10.00;;;2.40;99.90;;;;;;5012338;28;20205;-80
2023/03/08 09:08:05;;;;;;;17.77;9.80;;;2.40;99.90;;;;;;4992288;28;20708;-80
2023/03/08 09:10:36;;;;;;;21.17;10.40;;;2.30;99.90;;;;;;5006049;28;20211;-81
2023/03/08 09:13:03;;;;;;;22.03;12.10;;;2.60;99.90;;;;;;5011432;28;20211;-80
2023/03/08 09:15:32;;;;;;;19.33;10.00;;;2.70;99.90;;;;;;5015164;28;20570;-81
2023/03/08 09:17:58;;;;;;;21.30;11.27;;;2.50;99.90;;;;;;5015975;28;20217;-81
2023/03/08 09:20:25;;;;;;;21.77;10.47;;;2.60;99.90;;;;;;4998424;28;20298;-81
2023/03/08 09:22:52;;;;;;;21.53;10.43;;;2.50;99.90;;;;;;5010841;28;20700;-79
2023/03/08 09:25:22;;;;;;;21.33;10.50;;;2.40;99.90;;;;;;5012202;28;20208;-80
2023/03/08 09:27:49;;;;;;;22.97;11.40;;;2.70;99.90;;;;;;5014404;28;20232;-81
2023/03/08 09:30:17;;;;;;;19.27;9.57;;;2.80;99.90;;;;;;5026772;28;20200;-81
2023/03/08 09:32:45;;;;;;;20.63;10.13;;;2.80;99.90;;;;;;5032365;28;20223;-80
2023/03/08 09:35:13;;;;;;;20.67;10.60;;;2.80;99.90;;;;;;5016061;28;20563;-80
2023/03/08 09:37:40;;;;;;;18.43;10.00;;;2.90;99.90;;;;;;5014874;28;20221;-80
2023/03/08 09:40:17;;;;;;;18.73;8.70;;;2.80;99.90;;;;;;5002609;28;20201;-80
2023/03/08 09:42:44;;;;;;;20.73;9.77;;;2.90;99.90;;;;;;5007397;28;20231;-81
2023/03/08 09:45:22;;;;;;;19.53;10.07;;;2.60;99.90;;;;;;5002447;28;20714;-80
2023/03/08 09:47:55;;;;;;;20.03;10.07;;;2.80;99.90;;;;;;4996235;28;20294;-81
2023/03/08 09:50:39;;;;;;;17.87;9.67;;;3.00;99.90;;;;;;5006859;28;20296;-80
2023/03/08 09:53:14;;;;;;;19.97;10.33;;;3.10;99.90;;;;;;5016892;28;20214;-82
2023/03/08 09:55:47;;;;;;;22.43;12.17;;;3.10;99.90;;;;;;5017800;28;20202;-81
2023/03/08 09:58:21;;;;;;;19.53;10.73;;;3.10;99.90;;;;;;5013824;28;20220;-80
2023/03/08 10:00:48;;;;;;;21.40;11.50;;;3.20;99.90;;;;;;5014833;28;20759;-80
2023/03/08 10:03:43;;;;;;;24.10;12.47;;;3.10;99.90;;;;;;5013978;28;20200;-80
2023/03/08 10:06:15;;;;;;;25.53;11.83;;;3.10;99.90;;;;;;5014978;28;20590;-81
2023/03/08 10:08:52;;;;;;;21.40;11.57;;;3.00;99.90;;;;;;5014370;28;20220;-81
2023/03/08 10:11:28;;;;;;;22.77;12.27;;;3.10;99.90;;;;;;5013711;28;20208;-81
2023/03/08 10:13:58;;;;;;;22.70;11.40;;;3.30;99.90;;;;;;5006238;28;20211;-80
2023/03/08 10:16:28;;;;;;;19.50;10.00;;;3.40;99.90;;;;;;5021413;28;20852;-80
2023/03/08 10:19:00;;;;;;;21.17;9.60;;;3.20;99.90;;;;;;5031772;28;20220;-80
2023/03/08 10:21:29;;;;;;;19.37;10.67;;;3.30;99.90;;;;;;5014664;28;20192;-80
2023/03/08 10:24:00;;;;;;;18.40;9.50;;;3.10;99.90;;;;;;5012662;28;20204;-81
2023/03/08 10:26:28;;;;;;;19.37;9.93;;;3.10;99.90;;;;;;5007108;28;20240;-80
2023/03/08 10:28:55;;;;;;;18.43;9.17;;;3.10;99.90;;;;;;5002758;28;20656;-80
2023/03/08 10:31:24;;;;;;;18.57;9.50;;;3.10;99.90;;;;;;4995168;28;20550;-80
2023/03/08 10:34:00;;;;;;;21.07;10.03;;;3.40;99.90;;;;;;5012940;28;20267;-81
2023/03/08 10:36:27;;;;;;;17.67;9.90;;;3.50;99.90;;;;;;5023556;28;20200;-81
2023/03/08 10:38:59;;;;;;;20.23;10.50;;;3.60;99.90;;;;;;5012757;28;20693;-81
2023/03/08 10:41:27;;;;;;;20.73;10.33;;;3.80;99.90;;;;;;5013871;28;20235;-80
2023/03/08 10:43:55;;;;;;;21.07;10.90;;;3.50;99.90;;;;;;5014105;28;20201;-80
2023/03/08 10:46:23;;;;;;;20.60;10.50;;;3.60;99.90;;;;;;5021898;28;20196;-81
2023/03/08 10:48:50;;;;;;;16.77;9.40;;;3.70;99.90;;;;;;5012357;28;20592;-81
2023/03/08 10:51:21;;;;;;;11.73;6.00;;;3.60;99.90;;;;;;5014697;28;20664;-81
2023/03/08 10:53:55;;;;;;;13.43;6.77;;;3.30;99.90;;;;;;5013503;28;20203;-82
2023/03/08 10:56:26;;;;;;;13.53;7.30;;;3.40;99.90;;;;;;5013434;28;20218;-81
2023/03/08 10:58:57;;;;;;;13.83;7.27;;;3.30;99.90;;;;;;5012655;28;20600;-80
2023/03/08 11:01:25;;;;;;;10.47;6.07;;;3.30;99.90;;;;;;5014040;28;20215;-80
2023/03/08 11:04:00;;;;;;;10.87;6.30;;;3.10;99.90;;;;;;5012735;28;20196;-80
2023/03/08 11:06:28;;;;;;;13.30;7.57;;;3.20;99.90;;;;;;5013894;28;20225;-80
2023/03/08 11:08:58;;;;;;;15.93;7.40;;;3.20;99.90;;;;;;5011360;28;20228;-81
2023/03/08 11:11:24;;;;;;;16.67;8.67;;;3.40;99.90;;;;;;5012829;28;20208;-81
2023/03/08 11:13:53;;;;;;;15.93;8.80;;;3.60;99.90;;;;;;5013524;28;20204;-81
2023/03/08 11:16:50;;;;;;;16.33;8.53;;;3.80;99.90;;;;;;5015175;28;20681;-80
2023/03/08 11:19:31;;;;;;;16.43;8.13;;;3.70;99.90;;;;;;5012075;28;20282;-81
2023/03/08 11:22:08;;;;;;;15.60;7.13;;;3.80;99.90;;;;;;5013590;28;20211;-80
2023/03/08 11:24:48;;;;;;;15.67;7.53;;;3.90;99.90;;;;;;5005495;28;20204;-80
2023/03/08 11:27:31;;;;;;;17.03;7.50;;;4.10;99.90;;;;;;4992935;28;20220;-81
2023/03/08 11:30:09;;;;;;;21.80;7.87;;;3.70;99.90;;;;;;5023597;28;20211;-81
2023/03/08 11:32:53;;;;;;;10.17;4.33;;;4.00;99.90;;;;;;5030926;28;20218;-80
2023/03/08 11:35:25;;;;;;;7.77;4.07;;;3.80;99.90;;;;;;5033425;28;20557;-81
2023/03/08 11:38:02;;;;;;;9.20;5.03;;;3.70;99.90;;;;;;5031640;28;20231;-81
2023/03/08 11:40:33;;;;;;;10.63;4.73;;;4.00;99.90;;;;;;4992383;28;20204;-80
2023/03/08 11:43:13;;;;;;;9.90;4.20;;;4.20;99.90;;;;;;5005865;28;20217;-80
2023/03/08 11:45:46;;;;;;;10.23;4.80;;;3.80;99.90;;;;;;5013038;28;20574;-81
2023/03/08 11:48:22;;;;;;;9.00;4.43;;;3.50;99.90;;;;;;5010971;28;20244;-80
2023/03/08 11:50:53;;;;;;;5.50;3.23;;;3.80;99.90;;;;;;5012370;28;20199;-81
2023/03/08 11:53:33;;;;;;;5.37;3.50;;;3.50;99.90;;;;;;5011276;28;20370;-80
2023/03/08 11:56:13;;;;;;;6.00;3.53;;;3.50;99.90;;;;;;5012928;28;20661;-80
2023/03/08 11:58:45;;;;;;;6.67;3.53;;;3.50;99.90;;;;;;5011883;28;20228;-80
2023/03/08 12:01:18;;;;;;;5.83;3.80;;;3.50;99.90;;;;;;5013174;28;20228;-80
2023/03/08 12:03:49;;;;;;;5.53;3.30;;;3.60;99.90;;;;;;5011780;28;20213;-80
2023/03/08 12:06:23;;;;;;;6.60;3.13;;;3.70;99.90;;;;;;5013005;28;20298;-81
2023/03/08 12:08:56;;;;;;;5.73;3.53;;;3.20;99.90;;;;;;5008894;28;20307;-82
2023/03/08 12:11:28;;;;;;;7.20;3.53;;;3.50;99.90;;;;;;5007361;28;20207;-80
2023/03/08 12:14:01;;;;;;;5.90;3.30;;;3.30;99.90;;;;;;5022163;28;20209;-80
2023/03/08 12:16:35;;;;;;;3.57;2.90;;;3.60;99.90;;;;;;5032895;28;20234;-80
2023/03/08 12:19:11;;;;;;;3.90;2.80;;;3.10;99.90;;;;;;5026833;28;20235;-80
2023/03/08 12:21:41;;;;;;;4.47;2.60;;;3.30;99.90;;;;;;5012656;28;20204;-80
2023/03/08 12:24:26;;;;;;;3.57;2.77;;;3.00;99.90;;;;;;5011276;28;20219;-80
2023/03/08 12:26:59;;;;;;;2.97;2.10;;;3.10;99.90;;;;;;5012503;28;20204;-80
2023/03/08 12:29:32;;;;;;;4.13;2.27;;;3.20;99.90;;;;;;5011467;28;20709;-80
2023/03/08 12:32:00;;;;;;;4.47;2.47;;;3.10;99.90;;;;;;5010185;28;20688;-80
2023/03/08 12:34:30;;;;;;;5.03;2.47;;;3.20;99.90;;;;;;5012037;28;20208;-80
2023/03/08 12:36:56;;;;;;;5.87;3.23;;;3.40;99.90;;;;;;5012153;28;20582;-80
2023/03/08 12:39:28;;;;;;;4.73;3.00;;;3.60;99.90;;;;;;5011662;28;20231;-80
2023/03/08 12:42:01;;;;;;;5.30;3.40;;;3.40;99.90;;;;;;5013483;28;20206;-82
2023/03/08 12:44:30;;;;;;;6.37;3.50;;;3.10;99.90;;;;;;5027547;28;20196;-80
2023/03/08 12:46:59;;;;;;;8.10;3.77;;;2.80;99.90;;;;;;5030477;28;20203;-80
2023/03/08 12:49:30;;;;;;;8.50;4.00;;;2.90;99.90;;;;;;5016569;28;20760;-80
2023/03/08 12:51:59;;;;;;;6.90;3.60;;;2.70;99.90;;;;;;5011982;28;20204;-81
2023/03/08 12:54:31;;;;;;;6.97;4.23;;;2.80;99.90;;;;;;5011400;28;20207;-80